Time;durP1;ratioP1;P1;durP2;ratioP2;P2;SDS_P1;SDS_P2;PMS_P1;PMS_P2;Temp;Humidity;BMP_temperature;BMP_pressure;BME280_temperature;BME280_humidity;BME280_pressure;Samples;Min_cycle;Max_cycle;Signal;HPM_P1;HPM_P2
2022/01/16 00:01:42;;;;;;;25.47;15.13;;;3.80;89.00;;;;;;4928057;29;21142;-48
2022/01/16 00:04:11;;;;;;;22.87;13.60;;;3.70;89.10;;;;;;4923293;29;20453;-48
2022/01/16 00:06:45;;;;;;;23.37;12.77;;;3.80;89.40;;;;;;4923946;29;20462;-48
2022/01/16 00:09:13;;;;;;;20.07;11.20;;;3.80;89.10;;;;;;4926414;29;20463;-47
2022/01/16 00:11:41;;;;;;;17.67;10.30;;;3.80;89.00;;;;;;4927087;29;20578;-48
2022/01/16 00:14:07;;;;;;;19.40;9.10;;;3.80;88.80;;;;;;4909391;29;20955;-48
2022/01/16 00:16:34;;;;;;;15.37;8.93;;;3.80;88.60;;;;;;4923258;29;20821;-48
2022/01/16 00:19:02;;;;;;;17.47;9.63;;;3.80;88.70;;;;;;4923123;29;21052;-48
2022/01/16 00:21:32;;;;;;;15.33;8.70;;;3.80;88.80;;;;;;4925378;29;20467;-48
2022/01/16 00:24:00;;;;;;;19.53;10.00;;;3.80;88.70;;;;;;4922120;29;20499;-48
2022/01/16 00:26:27;;;;;;;15.63;9.33;;;3.80;88.70;;;;;;4924225;29;20503;-48
2022/01/16 00:28:54;;;;;;;12.10;7.70;;;3.80;88.30;;;;;;4921760;29;20463;-48
2022/01/16 00:31:23;;;;;;;17.27;8.73;;;3.80;88.60;;;;;;4924631;29;20482;-48
2022/01/16 00:33:51;;;;;;;15.83;9.40;;;3.80;88.60;;;;;;4919365;29;21075;-47
2022/01/16 00:36:19;;;;;;;15.80;8.97;;;3.80;88.80;;;;;;4920479;29;20464;-48
2022/01/16 00:38:47;;;;;;;17.90;9.90;;;3.70;89.10;;;;;;4905158;29;20460;-48
2022/01/16 00:41:18;;;;;;;17.03;10.30;;;3.80;89.10;;;;;;4924950;29;20857;-48
2022/01/16 00:43:46;;;;;;;16.50;9.77;;;3.80;88.80;;;;;;4920296;29;20461;-48
2022/01/16 00:46:13;;;;;;;21.93;10.43;;;3.80;88.80;;;;;;4914004;29;20962;-48
2022/01/16 00:48:40;;;;;;;20.43;10.20;;;3.80;89.00;;;;;;4920899;29;20460;-48
2022/01/16 00:51:07;;;;;;;22.83;11.77;;;3.80;89.10;;;;;;4924510;29;20464;-47
2022/01/16 00:53:34;;;;;;;22.00;10.30;;;3.70;89.40;;;;;;4906663;29;20472;-48
2022/01/16 00:56:01;;;;;;;23.00;11.53;;;3.80;89.40;;;;;;4920356;29;20496;-48
2022/01/16 00:58:28;;;;;;;23.67;11.37;;;3.80;89.10;;;;;;4923784;29;20574;-48
2022/01/16 01:00:55;;;;;;;22.47;11.17;;;3.80;89.10;;;;;;4922500;29;20496;-48
2022/01/16 01:03:22;;;;;;;24.33;13.60;;;3.80;89.00;;;;;;4919441;29;20472;-48
2022/01/16 01:05:49;;;;;;;23.60;14.80;;;3.80;89.30;;;;;;4921001;29;20471;-48
2022/01/16 01:08:17;;;;;;;24.87;13.13;;;3.80;88.80;;;;;;4912627;29;20467;-47
2022/01/16 01:10:47;;;;;;;23.70;12.50;;;3.80;88.50;;;;;;4926867;29;20464;-48
2022/01/16 01:13:31;;;;;;;24.20;12.83;;;3.80;88.70;;;;;;4912746;29;20490;-48
2022/01/16 01:16:04;;;;;;;31.50;15.80;;;3.80;88.40;;;;;;4923012;29;20618;-47
2022/01/16 01:18:33;;;;;;;28.90;15.00;;;3.80;88.60;;;;;;4920181;29;20466;-48
2022/01/16 01:21:02;;;;;;;27.03;14.70;;;3.80;89.00;;;;;;4910122;29;20472;-49
2022/01/16 01:23:30;;;;;;;31.43;16.60;;;3.70;88.80;;;;;;4922674;29;20524;-48
2022/01/16 01:25:57;;;;;;;29.30;15.67;;;3.70;88.80;;;;;;4922578;29;20465;-49
2022/01/16 01:28:24;;;;;;;43.30;18.83;;;3.70;89.10;;;;;;4929350;29;20451;-49
2022/01/16 01:30:51;;;;;;;32.93;16.40;;;3.70;89.40;;;;;;4925481;29;20464;-48
2022/01/16 01:33:21;;;;;;;31.77;15.80;;;3.70;89.10;;;;;;4922953;29;20519;-47
2022/01/16 01:35:48;;;;;;;40.50;17.07;;;3.70;88.50;;;;;;4925948;29;20575;-48
2022/01/16 01:38:20;;;;;;;35.20;16.73;;;3.60;88.50;;;;;;4918963;29;20475;-48
2022/01/16 01:40:49;;;;;;;28.47;13.87;;;3.60;88.60;;;;;;4905939;29;20949;-48
2022/01/16 01:51:35;;;;;;;28.07;14.30;;;3.20;89.30;;;;;;4922625;29;20472;-48
2022/01/16 01:54:04;;;;;;;23.60;14.43;;;3.20;89.10;;;;;;4918279;29;20844;-48
2022/01/16 01:56:31;;;;;;;33.33;13.27;;;3.20;89.30;;;;;;4908416;29;20477;-49
2022/01/16 01:59:00;;;;;;;29.07;14.67;;;3.20;89.10;;;;;;4922782;29;20460;-48
2022/01/16 02:01:28;;;;;;;31.13;15.07;;;3.30;89.00;;;;;;4921083;29;20452;-48
2022/01/16 02:03:56;;;;;;;25.93;12.97;;;3.30;89.30;;;;;;4917865;29;20471;-48
2022/01/16 02:06:25;;;;;;;27.40;14.83;;;3.30;89.30;;;;;;4911859;29;20468;-48
2022/01/16 02:08:55;;;;;;;26.43;14.70;;;3.30;89.40;;;;;;4921994;29;20627;-48
2022/01/16 02:11:26;;;;;;;23.87;13.57;;;3.30;89.40;;;;;;4921699;29;20551;-48
2022/01/16 02:35:41;;;;;;;20.10;12.60;;;3.10;88.10;;;;;;4919544;29;20496;-53
2022/01/16 02:38:10;;;;;;;22.27;12.07;;;3.10;87.30;;;;;;4923354;29;20449;-53
2022/01/16 02:40:40;;;;;;;23.13;11.33;;;3.10;87.10;;;;;;4919770;29;20459;-53
2022/01/16 02:43:07;;;;;;;27.67;14.27;;;3.10;87.30;;;;;;4920484;29;20981;-52
2022/01/16 02:45:37;;;;;;;24.77;14.17;;;3.10;87.50;;;;;;4921978;29;20464;-52
2022/01/16 02:48:06;;;;;;;24.17;13.50;;;3.10;87.90;;;;;;4916925;29;20488;-53
2022/01/16 02:50:35;;;;;;;19.77;12.43;;;3.10;87.50;;;;;;4919512;29;20482;-53
2022/01/16 02:53:11;;;;;;;23.57;11.93;;;3.10;87.60;;;;;;4921133;29;20456;-53
2022/01/16 02:55:41;;;;;;;26.53;13.43;;;3.10;87.70;;;;;;4921940;29;20499;-52
2022/01/16 02:58:08;;;;;;;22.60;12.00;;;3.10;87.60;;;;;;4921192;29;20549;-52
2022/01/16 03:00:36;;;;;;;24.50;14.10;;;3.20;87.30;;;;;;4920989;29;20462;-52
2022/01/16 03:03:03;;;;;;;18.70;11.80;;;3.20;87.40;;;;;;4911443;29;20539;-52
2022/01/16 03:05:31;;;;;;;21.23;11.93;;;3.20;87.60;;;;;;4927159;29;20557;-52
2022/01/16 03:07:57;;;;;;;24.73;11.73;;;3.20;87.40;;;;;;4923007;29;20862;-52
2022/01/16 03:12:52;;;;;;;22.40;13.00;;;3.20;86.80;;;;;;4920739;29;20472;-52
2022/01/16 03:15:20;;;;;;;17.97;11.30;;;3.20;86.40;;;;;;4922143;29;20877;-52
2022/01/16 03:23:15;;;;;;;22.27;12.60;;;3.10;86.60;;;;;;4926902;29;20483;-53
2022/01/16 03:25:42;;;;;;;21.60;12.87;;;3.10;86.50;;;;;;4926191;29;20483;-53
2022/01/16 03:28:09;;;;;;;19.23;12.77;;;3.00;86.50;;;;;;4922659;29;20452;-52
2022/01/16 03:30:36;;;;;;;17.67;11.90;;;3.00;86.40;;;;;;4928290;29;20502;-52
2022/01/16 03:33:04;;;;;;;27.50;14.00;;;3.00;86.30;;;;;;4924999;29;20456;-52
2022/01/16 03:35:31;;;;;;;22.03;12.90;;;2.90;86.80;;;;;;4928408;29;20496;-52
2022/01/16 03:37:58;;;;;;;27.43;13.23;;;2.90;86.90;;;;;;4923716;29;20464;-52
2022/01/16 03:40:25;;;;;;;26.07;14.13;;;3.00;86.00;;;;;;4929641;29;20452;-52
2022/01/16 03:42:52;;;;;;;21.07;11.80;;;2.90;85.60;;;;;;4923433;29;20460;-52
2022/01/16 03:45:19;;;;;;;24.33;14.23;;;2.90;85.10;;;;;;4927264;29;20463;-51
2022/01/16 03:47:46;;;;;;;21.50;12.20;;;2.90;85.20;;;;;;4926236;29;20443;-53
2022/01/16 03:50:13;;;;;;;23.57;13.27;;;2.80;85.30;;;;;;4923755;29;20456;-52
2022/01/16 03:52:39;;;;;;;27.20;14.57;;;2.70;85.80;;;;;;4927225;29;20829;-48
2022/01/16 03:55:07;;;;;;;20.00;12.90;;;2.70;86.20;;;;;;4922456;29;20492;-48
2022/01/16 03:57:36;;;;;;;18.30;11.40;;;2.70;85.90;;;;;;4925660;29;20460;-47
2022/01/16 04:00:06;;;;;;;17.07;10.47;;;2.70;85.90;;;;;;4923230;29;20456;-49
2022/01/16 04:02:33;;;;;;;23.00;11.23;;;2.70;86.00;;;;;;4914258;29;20843;-47
2022/01/16 04:05:00;;;;;;;17.07;9.27;;;2.70;85.80;;;;;;4913894;29;20462;-48
2022/01/16 04:07:32;;;;;;;17.80;10.43;;;2.70;85.60;;;;;;4924968;29;20459;-48
2022/01/16 04:09:59;;;;;;;21.73;11.83;;;2.70;86.30;;;;;;4920038;29;20457;-49
2022/01/16 04:12:26;;;;;;;16.43;10.47;;;2.70;86.50;;;;;;4923700;29;20483;-48
2022/01/16 04:17:21;;;;;;;19.60;10.87;;;2.70;86.90;;;;;;4923904;29;20887;-49
2022/01/16 04:19:50;;;;;;;17.17;10.20;;;2.80;86.20;;;;;;4926144;29;20806;-48
2022/01/16 04:22:18;;;;;;;17.27;9.23;;;2.90;85.70;;;;;;4912679;29;20457;-48
2022/01/16 04:24:45;;;;;;;19.90;11.17;;;2.90;85.60;;;;;;4927798;29;20853;-48
2022/01/16 04:27:13;;;;;;;16.63;9.67;;;2.90;86.00;;;;;;4912158;29;20892;-48
2022/01/16 04:29:42;;;;;;;16.23;9.53;;;2.80;86.30;;;;;;4926687;29;20452;-48
2022/01/16 04:32:10;;;;;;;14.70;7.60;;;2.90;86.40;;;;;;4907854;29;21012;-48
2022/01/16 04:34:37;;;;;;;12.73;8.20;;;2.90;85.90;;;;;;4941650;29;20825;-48
2022/01/16 04:37:05;;;;;;;15.17;8.63;;;2.90;85.80;;;;;;4926434;29;20471;-48
2022/01/16 04:39:34;;;;;;;15.60;10.23;;;3.00;85.50;;;;;;4923595;29;20460;-48
2022/01/16 04:44:49;;;;;;;13.80;9.50;;;3.00;84.10;;;;;;4924239;29;20538;-48
2022/01/16 04:47:17;;;;;;;13.23;8.33;;;3.00;84.30;;;;;;4927283;29;20467;-48
2022/01/16 04:49:43;;;;;;;16.40;8.57;;;2.90;85.20;;;;;;4928439;29;20460;-49
2022/01/16 04:52:10;;;;;;;13.13;9.40;;;3.00;85.10;;;;;;4927646;29;20491;-49
2022/01/16 04:54:37;;;;;;;17.80;11.00;;;2.90;84.90;;;;;;4928059;29;20456;-48
2022/01/16 04:57:04;;;;;;;13.07;8.70;;;2.90;84.40;;;;;;4920901;29;20493;-48
2022/01/16 04:59:30;;;;;;;16.33;9.17;;;2.90;84.80;;;;;;4921927;29;20456;-48
2022/01/16 05:01:57;;;;;;;18.80;10.27;;;2.80;85.10;;;;;;4923929;29;20969;-48
2022/01/16 05:04:25;;;;;;;20.60;11.60;;;2.80;85.70;;;;;;4921292;29;20540;-48
2022/01/16 05:06:52;;;;;;;16.17;9.80;;;2.80;85.60;;;;;;4911975;29;20849;-48
2022/01/16 05:09:20;;;;;;;13.70;9.00;;;2.80;85.60;;;;;;4913660;29;20464;-48
2022/01/16 05:11:53;;;;;;;15.00;9.70;;;2.80;85.60;;;;;;4923705;29;20456;-48
2022/01/16 05:17:06;;;;;;;13.27;9.43;;;2.80;85.80;;;;;;4922504;29;21083;-47
2022/01/16 05:19:32;;;;;;;10.77;7.77;;;2.80;85.60;;;;;;4921920;29;20467;-47
2022/01/16 05:21:59;;;;;;;12.60;9.17;;;2.90;85.90;;;;;;4924268;29;20973;-48
2022/01/16 05:24:34;;;;;;;11.67;8.00;;;2.90;85.70;;;;;;4924052;29;20574;-47
2022/01/16 05:27:01;;;;;;;13.83;9.37;;;2.90;85.60;;;;;;4919529;29;20499;-48
2022/01/16 05:29:27;;;;;;;12.57;8.03;;;3.00;84.90;;;;;;4925437;29;20546;-47
2022/01/16 05:31:54;;;;;;;11.77;8.13;;;3.00;84.90;;;;;;4925282;29;20453;-47
2022/01/16 05:34:25;;;;;;;13.93;8.50;;;3.00;84.70;;;;;;4919200;29;20889;-47
2022/01/16 05:36:53;;;;;;;9.97;7.10;;;2.90;84.40;;;;;;4920308;29;20493;-47
2022/01/16 05:39:19;;;;;;;13.87;8.97;;;2.90;84.80;;;;;;4914222;29;20843;-47
2022/01/16 05:41:50;;;;;;;11.40;7.60;;;2.90;84.80;;;;;;4920542;29;20453;-49
2022/01/16 05:44:17;;;;;;;16.00;9.20;;;2.90;85.20;;;;;;4921109;29;20869;-48
2022/01/16 05:46:44;;;;;;;12.00;8.47;;;2.90;85.30;;;;;;4923087;29;20857;-48
2022/01/16 05:49:10;;;;;;;14.57;9.27;;;2.90;85.20;;;;;;4925629;29;21308;-48
2022/01/16 05:51:37;;;;;;;11.37;7.67;;;2.90;85.00;;;;;;4924717;29;20469;-48
2022/01/16 05:54:04;;;;;;;9.23;7.00;;;3.00;84.60;;;;;;4925840;29;20475;-48
2022/01/16 05:56:31;;;;;;;13.20;8.03;;;3.00;84.70;;;;;;4924785;29;20495;-47
2022/01/16 05:58:57;;;;;;;10.87;7.13;;;3.00;84.60;;;;;;4923231;29;20474;-48
2022/01/16 06:01:24;;;;;;;11.67;7.50;;;3.00;85.00;;;;;;4922379;29;20478;-48
2022/01/16 06:03:52;;;;;;;11.53;7.60;;;3.10;85.10;;;;;;4922246;29;21024;-48
2022/01/16 06:06:18;;;;;;;10.40;7.73;;;3.10;83.80;;;;;;4920376;29;20828;-48
2022/01/16 06:08:45;;;;;;;11.60;7.60;;;3.10;83.70;;;;;;4926489;29;20459;-48
2022/01/16 06:11:12;;;;;;;8.93;6.70;;;3.10;83.60;;;;;;4924004;29;20456;-48
2022/01/16 06:13:39;;;;;;;10.50;7.40;;;3.10;83.50;;;;;;4922839;29;20463;-48
2022/01/16 06:16:06;;;;;;;10.30;8.67;;;3.10;83.80;;;;;;4920867;29;21010;-48
2022/01/16 06:18:33;;;;;;;8.53;6.87;;;3.10;83.90;;;;;;4922133;29;20524;-48
2022/01/16 06:20:59;;;;;;;14.23;8.60;;;3.10;83.60;;;;;;4924358;29;20906;-48
2022/01/16 06:23:26;;;;;;;11.03;8.70;;;3.10;83.50;;;;;;4921457;29;20554;-48
2022/01/16 06:25:56;;;;;;;10.83;7.50;;;3.10;83.90;;;;;;4922418;29;20474;-47
2022/01/16 06:28:24;;;;;;;8.40;7.00;;;3.10;83.90;;;;;;4922845;29;20466;-48
2022/01/16 06:30:51;;;;;;;10.17;7.47;;;3.10;82.70;;;;;;4923492;29;20460;-47
2022/01/16 06:33:18;;;;;;;10.57;7.40;;;3.10;82.40;;;;;;4922620;29;20505;-48
2022/01/16 06:35:45;;;;;;;11.73;8.37;;;3.10;82.90;;;;;;4937973;29;20869;-47
2022/01/16 06:38:12;;;;;;;12.67;8.13;;;3.10;83.40;;;;;;4907578;29;20453;-48
2022/01/16 06:40:38;;;;;;;16.97;8.70;;;3.10;83.30;;;;;;4923914;29;20964;-48
2022/01/16 06:43:05;;;;;;;10.30;7.47;;;3.10;83.40;;;;;;4918106;29;20472;-48
2022/01/16 06:45:32;;;;;;;9.63;7.50;;;3.10;82.80;;;;;;4920439;29;20474;-48
2022/01/16 06:47:59;;;;;;;12.60;8.33;;;3.10;82.50;;;;;;4926662;29;20467;-48
2022/01/16 06:50:26;;;;;;;12.00;7.87;;;3.10;83.10;;;;;;4924136;29;20569;-48
2022/01/16 06:52:53;;;;;;;13.17;8.77;;;3.10;83.40;;;;;;4926123;29;20451;-48
2022/01/16 06:55:20;;;;;;;12.10;7.97;;;3.10;83.50;;;;;;4928780;29;20458;-48
2022/01/16 06:57:46;;;;;;;12.67;7.87;;;3.10;83.50;;;;;;4925395;29;20461;-48
2022/01/16 07:00:13;;;;;;;14.50;10.57;;;3.10;83.80;;;;;;4927950;29;20975;-48
2022/01/16 07:02:40;;;;;;;11.30;7.43;;;3.10;84.20;;;;;;4925829;29;20468;-48
2022/01/16 07:05:08;;;;;;;15.53;10.17;;;3.20;83.70;;;;;;4912856;29;20468;-49
2022/01/16 07:07:35;;;;;;;12.23;8.50;;;3.10;83.50;;;;;;4928688;29;20459;-49
2022/01/16 07:10:03;;;;;;;15.57;9.87;;;3.10;83.50;;;;;;4926510;29;20496;-49
2022/01/16 07:12:30;;;;;;;19.93;11.40;;;3.10;84.00;;;;;;4926342;29;20461;-47
2022/01/16 07:14:57;;;;;;;16.70;10.93;;;3.10;84.20;;;;;;4927099;29;20457;-48
2022/01/16 07:17:24;;;;;;;14.40;10.20;;;3.10;84.20;;;;;;4926995;29;20578;-48
2022/01/16 07:19:51;;;;;;;11.73;10.07;;;3.10;84.30;;;;;;4925125;29;20459;-48
2022/01/16 07:22:21;;;;;;;16.30;10.10;;;3.10;84.40;;;;;;4912472;29;20476;-48
2022/01/16 07:24:51;;;;;;;17.57;9.77;;;3.20;84.30;;;;;;4926642;29;20471;-48
2022/01/16 07:27:18;;;;;;;15.70;10.20;;;3.20;83.80;;;;;;4925323;29;20546;-48
2022/01/16 07:29:46;;;;;;;20.27;12.23;;;3.20;83.60;;;;;;4926505;29;20490;-49
2022/01/16 07:32:13;;;;;;;24.53;12.93;;;3.20;83.80;;;;;;4925113;29;20575;-48
2022/01/16 07:34:40;;;;;;;20.77;12.80;;;3.10;83.90;;;;;;4923818;29;20851;-48
2022/01/16 07:37:06;;;;;;;19.23;12.87;;;3.10;84.30;;;;;;4925274;29;22408;-48
2022/01/16 07:39:33;;;;;;;18.70;12.03;;;3.10;84.20;;;;;;4924530;29;20461;-49
2022/01/16 07:42:00;;;;;;;20.97;11.30;;;3.10;84.50;;;;;;4925444;29;20459;-48
2022/01/16 07:44:27;;;;;;;23.40;12.50;;;3.20;83.90;;;;;;4923069;29;20524;-48
2022/01/16 07:46:54;;;;;;;17.67;11.03;;;3.20;84.20;;;;;;4924693;29;20567;-48
2022/01/16 07:49:21;;;;;;;25.27;13.60;;;3.10;84.20;;;;;;4915200;29;20515;-48
2022/01/16 07:51:48;;;;;;;21.23;11.73;;;3.10;84.60;;;;;;4924218;29;20472;-50
2022/01/16 07:54:14;;;;;;;27.90;14.20;;;3.10;84.60;;;;;;4925311;29;20807;-50
2022/01/16 07:56:41;;;;;;;20.73;11.63;;;3.10;84.80;;;;;;4922344;29;20497;-50
2022/01/16 07:59:08;;;;;;;19.27;10.77;;;3.10;84.50;;;;;;4926831;29;20453;-50
2022/01/16 08:01:35;;;;;;;17.80;12.07;;;3.10;84.30;;;;;;4924982;29;20835;-50
2022/01/16 08:04:02;;;;;;;17.27;11.07;;;3.10;84.40;;;;;;4923104;29;21072;-50
2022/01/16 08:06:31;;;;;;;18.70;12.30;;;3.10;84.50;;;;;;4925649;29;20460;-50
2022/01/16 08:08:58;;;;;;;17.63;11.13;;;3.10;84.80;;;;;;4926049;29;20463;-51
2022/01/16 08:11:25;;;;;;;22.63;12.03;;;3.10;84.80;;;;;;4915190;29;20811;-50
2022/01/16 08:13:51;;;;;;;24.63;12.60;;;3.10;84.60;;;;;;4923599;29;20466;-51
2022/01/16 08:16:18;;;;;;;24.37;13.20;;;3.10;84.80;;;;;;4928754;29;20484;-50
2022/01/16 08:18:45;;;;;;;23.70;12.80;;;3.10;85.00;;;;;;4929173;29;20439;-51
2022/01/16 08:21:12;;;;;;;25.07;14.67;;;3.10;85.00;;;;;;4909955;29;20833;-51
2022/01/16 08:23:38;;;;;;;21.90;12.57;;;3.10;84.80;;;;;;4926103;29;20500;-51
2022/01/16 08:26:05;;;;;;;22.67;13.70;;;3.10;85.00;;;;;;4930163;29;20476;-51
2022/01/16 08:28:32;;;;;;;26.23;13.13;;;3.20;85.00;;;;;;4912808;29;20459;-51
2022/01/16 08:30:59;;;;;;;23.40;14.80;;;3.20;85.20;;;;;;4924856;29;20568;-51
2022/01/16 08:33:26;;;;;;;19.10;13.17;;;3.20;85.00;;;;;;4925790;29;20933;-51
2022/01/16 08:35:52;;;;;;;23.70;13.87;;;3.30;84.80;;;;;;4927807;29;20470;-51
2022/01/16 08:38:21;;;;;;;24.70;13.40;;;3.30;84.80;;;;;;4925926;29;20453;-51
2022/01/16 08:40:48;;;;;;;22.50;13.97;;;3.30;84.80;;;;;;4924152;29;20453;-51
2022/01/16 08:43:16;;;;;;;28.10;14.20;;;3.30;84.90;;;;;;4925903;29;20452;-50
2022/01/16 08:45:44;;;;;;;28.67;16.10;;;3.30;85.00;;;;;;4925553;29;20471;-51
2022/01/16 08:48:11;;;;;;;36.07;16.20;;;3.30;85.00;;;;;;4924823;29;20520;-50
2022/01/16 08:50:38;;;;;;;27.27;16.00;;;3.30;85.10;;;;;;4925064;29;20828;-51
2022/01/16 08:53:06;;;;;;;25.13;14.10;;;3.30;85.40;;;;;;4924448;29;20467;-51
2022/01/16 08:55:34;;;;;;;21.13;13.40;;;3.30;85.50;;;;;;4924374;29;21065;-51
2022/01/16 08:58:02;;;;;;;36.47;16.00;;;3.30;85.50;;;;;;4915947;29;20937;-47
2022/01/16 09:00:32;;;;;;;26.23;14.77;;;3.30;85.60;;;;;;4909730;29;20456;-50
2022/01/16 09:02:59;;;;;;;25.47;14.00;;;3.40;85.30;;;;;;4928259;29;20840;-49
2022/01/16 09:05:27;;;;;;;24.57;13.93;;;3.40;85.20;;;;;;4921742;29;20460;-48
2022/01/16 09:07:54;;;;;;;27.90;15.87;;;3.40;85.00;;;;;;4911310;29;20470;-48
2022/01/16 09:10:22;;;;;;;29.53;16.33;;;3.40;85.10;;;;;;4923514;29;20448;-48
2022/01/16 09:12:49;;;;;;;26.43;14.67;;;3.40;85.10;;;;;;4926586;29;20464;-49
2022/01/16 09:15:15;;;;;;;23.40;15.03;;;3.40;85.50;;;;;;4920299;29;20471;-49
2022/01/16 09:18:10;;;;;;;32.80;15.27;;;3.50;85.50;;;;;;4924034;29;20483;-50
2022/01/16 09:20:38;;;;;;;28.43;15.33;;;3.50;85.20;;;;;;4910229;29;20463;-50
2022/01/16 09:23:05;;;;;;;25.27;14.80;;;3.50;85.50;;;;;;4921107;29;20494;-48
2022/01/16 09:25:32;;;;;;;26.53;14.27;;;3.50;85.10;;;;;;4910920;29;20460;-49
2022/01/16 09:27:59;;;;;;;29.30;14.10;;;3.60;85.20;;;;;;4922265;29;20464;-48
2022/01/16 09:30:28;;;;;;;24.90;12.53;;;3.60;85.40;;;;;;4923029;29;20465;-49
2022/01/16 09:32:54;;;;;;;25.77;14.30;;;3.60;85.40;;;;;;4920942;29;20475;-49
2022/01/16 09:35:21;;;;;;;26.67;14.80;;;3.70;84.80;;;;;;4911267;29;20475;-49
2022/01/16 09:37:54;;;;;;;33.17;15.17;;;3.80;84.50;;;;;;4920744;29;20496;-49
2022/01/16 09:40:22;;;;;;;23.50;12.87;;;3.80;84.40;;;;;;4921214;29;20460;-50
2022/01/16 09:42:49;;;;;;;24.67;13.60;;;3.70;84.50;;;;;;4923000;29;20456;-50
2022/01/16 09:45:18;;;;;;;26.30;13.97;;;3.70;84.30;;;;;;4922993;29;20457;-49
2022/01/16 09:47:45;;;;;;;25.33;13.50;;;3.70;84.40;;;;;;4915115;29;20468;-49
2022/01/16 09:50:24;;;;;;;25.87;13.60;;;3.70;84.40;;;;;;4914126;29;20468;-49
2022/01/16 09:52:51;;;;;;;23.73;11.70;;;3.70;84.60;;;;;;4924538;29;20463;-50
2022/01/16 09:55:20;;;;;;;24.03;14.17;;;3.70;84.60;;;;;;4921149;29;20460;-50
2022/01/16 09:57:49;;;;;;;25.10;14.13;;;3.70;83.40;;;;;;4924549;29;21030;-50
2022/01/16 10:00:20;;;;;;;22.90;12.60;;;3.70;83.80;;;;;;4920445;29;20497;-50
2022/01/16 10:02:48;;;;;;;32.77;14.00;;;3.70;83.80;;;;;;4923666;29;20491;-49
2022/01/16 10:05:36;;;;;;;22.20;12.20;;;3.60;83.80;;;;;;4922305;29;20830;-49
2022/01/16 10:08:11;;;;;;;19.50;12.00;;;3.60;83.80;;;;;;4924195;29;20475;-51
2022/01/16 10:10:44;;;;;;;20.10;11.63;;;3.50;83.40;;;;;;4923704;29;20471;-50
2022/01/16 10:13:23;;;;;;;22.27;11.70;;;3.50;83.50;;;;;;4925922;29;20463;-51
2022/01/16 10:15:57;;;;;;;26.23;12.50;;;3.50;83.90;;;;;;4909993;29;20545;-51
2022/01/16 10:18:32;;;;;;;22.00;12.07;;;3.40;83.60;;;;;;4924903;29;20490;-52
2022/01/16 10:20:59;;;;;;;20.63;11.40;;;3.40;83.60;;;;;;4922261;29;20450;-52
2022/01/16 10:23:26;;;;;;;22.70;12.30;;;3.40;83.70;;;;;;4922123;29;20497;-50
2022/01/16 10:25:52;;;;;;;18.67;12.63;;;3.40;84.30;;;;;;4923669;29;20474;-50
2022/01/16 10:28:24;;;;;;;19.77;11.97;;;3.40;84.40;;;;;;4926394;29;20456;-51
2022/01/16 10:30:57;;;;;;;20.43;12.40;;;3.30;84.90;;;;;;4924483;29;20452;-50
2022/01/16 10:33:28;;;;;;;23.80;13.67;;;3.40;85.00;;;;;;4927426;29;20464;-49
2022/01/16 10:36:03;;;;;;;24.77;12.70;;;3.40;84.90;;;;;;4923408;29;20543;-51
2022/01/16 10:38:30;;;;;;;20.77;13.20;;;3.40;84.60;;;;;;4911353;29;20488;-50
2022/01/16 10:40:59;;;;;;;22.90;12.67;;;3.40;84.50;;;;;;4923075;29;20460;-50
2022/01/16 10:43:44;;;;;;;19.33;12.20;;;3.40;84.80;;;;;;4923299;29;20533;-50
2022/01/16 10:46:12;;;;;;;23.73;13.20;;;3.40;84.50;;;;;;4924187;29;20458;-51
2022/01/16 10:49:11;;;;;;;20.43;12.00;;;3.40;84.70;;;;;;4925264;29;20475;-50
2022/01/16 10:51:38;;;;;;;20.20;12.53;;;3.30;85.00;;;;;;4923387;29;20468;-50
2022/01/16 10:54:28;;;;;;;22.53;11.53;;;3.30;85.20;;;;;;4923515;29;20956;-49
2022/01/16 10:56:54;;;;;;;23.20;13.37;;;3.30;85.20;;;;;;4922513;29;20595;-50
2022/01/16 10:59:22;;;;;;;24.97;12.13;;;3.30;85.10;;;;;;4921604;29;20447;-50
2022/01/16 11:02:18;;;;;;;33.63;12.40;;;3.40;85.20;;;;;;4927760;29;20483;-50
2022/01/16 11:04:46;;;;;;;21.60;12.40;;;3.40;84.90;;;;;;4917965;29;20933;-50
2022/01/16 11:07:13;;;;;;;24.00;11.03;;;3.40;84.90;;;;;;4923814;29;20464;-49
2022/01/16 11:09:40;;;;;;;17.10;11.00;;;3.30;84.90;;;;;;4925265;29;20460;-50
2022/01/16 11:12:07;;;;;;;23.33;13.70;;;3.30;85.00;;;;;;4913861;29;20474;-50
2022/01/16 11:14:34;;;;;;;17.50;11.07;;;3.30;85.30;;;;;;4925574;29;20468;-49
2022/01/16 11:17:01;;;;;;;22.83;12.10;;;3.40;85.50;;;;;;4921571;29;20496;-50
2022/01/16 11:19:34;;;;;;;26.33;14.07;;;3.40;84.80;;;;;;4908336;29;20457;-50
2022/01/16 11:22:04;;;;;;;22.83;11.80;;;3.40;84.80;;;;;;4920041;29;20861;-50
2022/01/16 11:24:46;;;;;;;24.37;14.93;;;3.40;85.50;;;;;;4922192;29;20467;-51
2022/01/16 11:27:16;;;;;;;22.90;12.03;;;3.40;85.10;;;;;;4922443;29;20458;-51
2022/01/16 11:29:43;;;;;;;20.60;12.03;;;3.40;85.40;;;;;;4923553;29;20962;-51
2022/01/16 11:32:11;;;;;;;19.83;13.63;;;3.50;85.40;;;;;;4922485;29;20460;-50
2022/01/16 11:34:38;;;;;;;23.07;13.73;;;3.50;85.10;;;;;;4920401;29;20470;-50
2022/01/16 11:37:05;;;;;;;24.30;13.60;;;3.50;85.20;;;;;;4921008;29;20574;-50
2022/01/16 11:39:36;;;;;;;23.20;14.13;;;3.60;85.00;;;;;;4923777;29;20456;-49
2022/01/16 11:42:04;;;;;;;23.30;12.23;;;3.60;85.00;;;;;;4927276;29;20455;-50
2022/01/16 11:44:34;;;;;;;24.70;13.67;;;3.60;84.70;;;;;;4923280;29;20462;-49
2022/01/16 11:47:04;;;;;;;29.83;12.90;;;3.60;84.60;;;;;;4930071;29;20534;-50
2022/01/16 11:49:32;;;;;;;21.77;13.10;;;3.60;84.90;;;;;;4925711;29;20459;-49
2022/01/16 11:52:15;;;;;;;25.03;13.07;;;3.60;85.00;;;;;;4928761;29;21041;-50
2022/01/16 11:54:44;;;;;;;21.60;12.20;;;3.70;84.80;;;;;;4925398;29;20468;-50
2022/01/16 11:57:28;;;;;;;25.47;12.93;;;3.70;84.50;;;;;;4925007;29;20488;-49
2022/01/16 12:00:15;;;;;;;25.13;13.00;;;3.70;84.20;;;;;;4923415;29;20992;-50
2022/01/16 12:02:44;;;;;;;24.50;12.80;;;3.70;84.50;;;;;;4922396;29;20461;-51
2022/01/16 12:05:25;;;;;;;25.63;13.80;;;3.80;84.40;;;;;;4923665;29;20471;-51
2022/01/16 12:07:54;;;;;;;29.77;13.87;;;3.80;84.80;;;;;;4921252;29;20453;-50
2022/01/16 12:10:57;;;;;;;23.07;13.27;;;3.90;83.90;;;;;;4926950;29;20549;-49
2022/01/16 12:13:44;;;;;;;22.13;11.47;;;3.90;83.90;;;;;;4908559;29;20996;-50
2022/01/16 12:16:35;;;;;;;19.40;12.57;;;3.90;83.50;;;;;;4920643;29;20478;-51
2022/01/16 12:19:43;;;;;;;23.17;13.13;;;4.00;84.40;;;;;;4924252;29;20503;-50
2022/01/16 12:22:14;;;;;;;26.53;13.33;;;4.10;84.20;;;;;;4920930;29;20456;-50
2022/01/16 12:24:48;;;;;;;23.83;12.83;;;4.20;83.80;;;;;;4923228;29;20468;-49
2022/01/16 12:27:27;;;;;;;23.70;12.00;;;4.30;83.40;;;;;;4923411;29;20463;-50
2022/01/16 12:30:35;;;;;;;23.17;12.70;;;4.40;83.50;;;;;;4928364;29;20457;-50
2022/01/16 12:33:27;;;;;;;20.40;11.93;;;4.40;83.80;;;;;;4907770;29;20596;-51
2022/01/16 12:35:55;;;;;;;22.73;12.00;;;4.60;83.30;;;;;;4925812;29;20949;-51
2022/01/16 12:38:42;;;;;;;20.13;13.23;;;4.70;82.50;;;;;;4922241;29;20496;-51
2022/01/16 12:41:14;;;;;;;22.60;14.00;;;4.70;81.90;;;;;;4922131;29;21023;-50
2022/01/16 12:44:02;;;;;;;20.73;11.40;;;4.80;81.90;;;;;;4923816;29;20965;-50
2022/01/16 12:46:31;;;;;;;19.80;12.20;;;4.80;81.80;;;;;;4923534;29;20491;-50
2022/01/16 12:49:26;;;;;;;18.40;11.57;;;4.90;82.00;;;;;;4923249;29;20531;-50
2022/01/16 12:51:57;;;;;;;20.90;12.57;;;4.90;81.00;;;;;;4925196;29;20876;-50
2022/01/16 12:54:30;;;;;;;20.53;12.13;;;5.00;81.20;;;;;;4920607;29;20839;-48
2022/01/16 12:56:59;;;;;;;16.67;10.40;;;5.00;81.30;;;;;;4921865;29;20481;-48
2022/01/16 12:59:42;;;;;;;21.20;12.97;;;5.00;81.20;;;;;;4921846;29;20491;-49
2022/01/16 13:02:11;;;;;;;18.87;11.33;;;5.10;80.80;;;;;;4924076;29;20508;-47
2022/01/16 13:04:43;;;;;;;20.03;10.73;;;5.10;80.80;;;;;;4910374;29;20571;-47
2022/01/16 13:07:31;;;;;;;21.97;11.60;;;5.10;80.90;;;;;;4919224;29;20460;-48
2022/01/16 13:10:01;;;;;;;17.77;11.17;;;5.20;80.60;;;;;;4925483;29;20589;-49
2022/01/16 13:12:29;;;;;;;17.20;10.47;;;5.20;80.60;;;;;;4922374;29;20556;-48
2022/01/16 13:15:00;;;;;;;15.33;10.90;;;5.30;79.80;;;;;;4922160;29;20503;-48
2022/01/16 13:17:33;;;;;;;19.07;11.87;;;5.30;79.50;;;;;;4914090;29;20864;-48
2022/01/16 13:20:03;;;;;;;20.83;11.30;;;5.30;79.90;;;;;;4923583;29;20455;-49
2022/01/16 13:22:37;;;;;;;18.27;11.37;;;5.30;79.50;;;;;;4922646;29;20535;-48
2022/01/16 13:25:07;;;;;;;18.13;11.07;;;5.30;79.50;;;;;;4912832;29;20480;-49
2022/01/16 13:27:37;;;;;;;19.30;11.00;;;5.20;79.80;;;;;;4924198;29;20473;-48
2022/01/16 13:30:13;;;;;;;17.03;9.90;;;5.20;79.60;;;;;;4920772;29;20466;-49
2022/01/16 13:32:41;;;;;;;18.47;10.63;;;5.20;79.80;;;;;;4921894;29;21025;-48
2022/01/16 13:35:18;;;;;;;18.90;9.90;;;5.20;79.60;;;;;;4906962;29;20486;-48
2022/01/16 13:37:46;;;;;;;16.07;11.60;;;5.10;79.70;;;;;;4925631;29;20647;-48
2022/01/16 13:40:18;;;;;;;24.20;13.00;;;5.10;79.90;;;;;;4924305;29;20466;-48